sensor_id;sensor_type;location;lat;lon;timestamp;P1;durP1;ratioP1;P2;durP2;ratioP2
70942;SDS011;59154;51.970;5.650;2023-02-22T00:00:03;15.0;;;9.6;;
70942;SDS011;59154;51.970;5.650;2023-02-22T00:05:02;12.6;;;9.6;;
70942;SDS011;59154;51.970;5.650;2023-02-22T00:10:02;12.9;;;8.6;;
70942;SDS011;59154;51.970;5.650;2023-02-22T00:15:02;14.5;;;10.8;;
70942;SDS011;59154;51.970;5.650;2023-02-22T00:20:03;13.5;;;9.7;;
70942;SDS011;59154;51.970;5.650;2023-02-22T00:25:02;13.9;;;10.2;;
70942;SDS011;59154;51.970;5.650;2023-02-22T00:30:03;16.8;;;10.5;;
70942;SDS011;59154;51.970;5.650;2023-02-22T00:35:02;15.0;;;11.0;;
70942;SDS011;59154;51.970;5.650;2023-02-22T00:40:04;15.2;;;10.6;;
70942;SDS011;59154;51.970;5.650;2023-02-22T00:45:03;15.4;;;10.4;;
70942;SDS011;59154;51.970;5.650;2023-02-22T00:50:03;17.9;;;11.1;;
70942;SDS011;59154;51.970;5.650;2023-02-22T00:55:02;15.4;;;12.2;;
70942;SDS011;59154;51.970;5.650;2023-02-22T01:00:04;17.7;;;11.7;;
70942;SDS011;59154;51.970;5.650;2023-02-22T01:05:02;18.1;;;11.1;;
70942;SDS011;59154;51.970;5.650;2023-02-22T01:10:02;15.9;;;11.7;;
70942;SDS011;59154;51.970;5.650;2023-02-22T01:15:03;17.6;;;12.3;;
70942;SDS011;59154;51.970;5.650;2023-02-22T01:20:03;17.5;;;11.7;;
70942;SDS011;59154;51.970;5.650;2023-02-22T01:25:02;17.7;;;12.3;;
70942;SDS011;59154;51.970;5.650;2023-02-22T01:30:03;19.1;;;12.3;;
70942;SDS011;59154;51.970;5.650;2023-02-22T01:35:02;18.8;;;12.6;;
70942;SDS011;59154;51.970;5.650;2023-02-22T01:40:05;17.7;;;12.5;;
70942;SDS011;59154;51.970;5.650;2023-02-22T01:45:29;21.2;;;13.8;;
70942;SDS011;59154;51.970;5.650;2023-02-22T01:50:02;19.3;;;13.4;;
70942;SDS011;59154;51.970;5.650;2023-02-22T01:55:02;20.4;;;13.5;;
70942;SDS011;59154;51.970;5.650;2023-02-22T02:00:08;20.5;;;13.7;;
70942;SDS011;59154;51.970;5.650;2023-02-22T02:05:02;21.0;;;13.4;;
70942;SDS011;59154;51.970;5.650;2023-02-22T02:10:04;21.0;;;14.4;;
70942;SDS011;59154;51.970;5.650;2023-02-22T02:15:20;21.8;;;14.2;;
70942;SDS011;59154;51.970;5.650;2023-02-22T02:20:04;21.5;;;14.8;;
70942;SDS011;59154;51.970;5.650;2023-02-22T02:25:13;22.3;;;14.6;;
70942;SDS011;59154;51.970;5.650;2023-02-22T02:30:09;23.5;;;15.2;;
70942;SDS011;59154;51.970;5.650;2023-02-22T02:35:03;21.9;;;15.1;;
70942;SDS011;59154;51.970;5.650;2023-02-22T02:40:06;19.8;;;13.7;;
70942;SDS011;59154;51.970;5.650;2023-02-22T02:45:03;21.4;;;14.4;;
70942;SDS011;59154;51.970;5.650;2023-02-22T02:50:04;21.3;;;14.1;;
70942;SDS011;59154;51.970;5.650;2023-02-22T02:55:02;22.4;;;15.1;;
70942;SDS011;59154;51.970;5.650;2023-02-22T03:00:03;23.8;;;15.7;;
70942;SDS011;59154;51.970;5.650;2023-02-22T03:05:06;22.6;;;14.9;;
70942;SDS011;59154;51.970;5.650;2023-02-22T03:10:09;24.0;;;15.8;;
70942;SDS011;59154;51.970;5.650;2023-02-22T03:15:05;23.9;;;14.3;;
70942;SDS011;59154;51.970;5.650;2023-02-22T03:20:04;25.3;;;15.8;;
70942;SDS011;59154;51.970;5.650;2023-02-22T03:25:02;24.3;;;15.9;;
70942;SDS011;59154;51.970;5.650;2023-02-22T03:30:04;22.9;;;15.2;;
70942;SDS011;59154;51.970;5.650;2023-02-22T03:35:04;26.6;;;14.8;;
70942;SDS011;59154;51.970;5.650;2023-02-22T03:40:04;23.3;;;14.3;;
70942;SDS011;59154;51.970;5.650;2023-02-22T03:45:02;30.4;;;16.2;;
70942;SDS011;59154;51.970;5.650;2023-02-22T03:50:03;26.2;;;17.2;;
70942;SDS011;59154;51.970;5.650;2023-02-22T03:55:02;23.3;;;15.3;;
70942;SDS011;59154;51.970;5.650;2023-02-22T04:00:04;26.2;;;16.1;;
70942;SDS011;59154;51.970;5.650;2023-02-22T04:05:02;24.0;;;15.5;;
70942;SDS011;59154;51.970;5.650;2023-02-22T04:10:03;24.6;;;15.7;;
70942;SDS011;59154;51.970;5.650;2023-02-22T04:15:03;25.1;;;15.2;;
70942;SDS011;59154;51.970;5.650;2023-02-22T04:20:03;23.9;;;15.0;;
70942;SDS011;59154;51.970;5.650;2023-02-22T04:25:02;26.1;;;15.6;;
70942;SDS011;59154;51.970;5.650;2023-02-22T04:30:03;26.0;;;15.6;;
70942;SDS011;59154;51.970;5.650;2023-02-22T04:35:02;24.0;;;15.2;;
70942;SDS011;59154;51.970;5.650;2023-02-22T04:40:03;23.3;;;14.9;;
70942;SDS011;59154;51.970;5.650;2023-02-22T04:45:03;22.3;;;14.7;;
70942;SDS011;59154;51.970;5.650;2023-02-22T04:50:03;23.7;;;15.3;;
70942;SDS011;59154;51.970;5.650;2023-02-22T04:55:03;23.7;;;15.4;;
70942;SDS011;59154;51.970;5.650;2023-02-22T05:00:04;23.9;;;15.5;;
70942;SDS011;59154;51.970;5.650;2023-02-22T05:05:02;27.4;;;15.6;;
70942;SDS011;59154;51.970;5.650;2023-02-22T05:10:02;29.3;;;18.2;;
70942;SDS011;59154;51.970;5.650;2023-02-22T05:15:02;26.6;;;15.7;;
70942;SDS011;59154;51.970;5.650;2023-02-22T05:20:04;30.6;;;16.9;;
70942;SDS011;59154;51.970;5.650;2023-02-22T05:25:02;30.1;;;16.7;;
70942;SDS011;59154;51.970;5.650;2023-02-22T05:30:02;29.1;;;17.5;;
70942;SDS011;59154;51.970;5.650;2023-02-22T05:35:02;32.3;;;17.9;;
70942;SDS011;59154;51.970;5.650;2023-02-22T05:40:03;29.9;;;18.8;;
70942;SDS011;59154;51.970;5.650;2023-02-22T05:45:02;36.6;;;17.5;;
70942;SDS011;59154;51.970;5.650;2023-02-22T05:50:03;38.1;;;19.9;;
70942;SDS011;59154;51.970;5.650;2023-02-22T05:55:02;29.1;;;18.0;;
70942;SDS011;59154;51.970;5.650;2023-02-22T06:00:03;30.6;;;18.4;;
70942;SDS011;59154;51.970;5.650;2023-02-22T06:05:02;26.1;;;16.6;;
70942;SDS011;59154;51.970;5.650;2023-02-22T06:10:02;30.7;;;17.9;;
70942;SDS011;59154;51.970;5.650;2023-02-22T06:15:02;35.3;;;18.6;;
70942;SDS011;59154;51.970;5.650;2023-02-22T06:20:03;31.6;;;18.1;;
70942;SDS011;59154;51.970;5.650;2023-02-22T06:25:02;31.6;;;17.9;;
70942;SDS011;59154;51.970;5.650;2023-02-22T06:30:02;34.7;;;20.7;;
70942;SDS011;59154;51.970;5.650;2023-02-22T06:35:02;29.5;;;17.6;;
70942;SDS011;59154;51.970;5.650;2023-02-22T06:40:03;42.8;;;22.0;;
70942;SDS011;59154;51.970;5.650;2023-02-22T06:45:02;57.3;;;22.9;;
70942;SDS011;59154;51.970;5.650;2023-02-22T06:50:02;40.2;;;21.1;;
70942;SDS011;59154;51.970;5.650;2023-02-22T06:55:02;40.5;;;20.2;;
70942;SDS011;59154;51.970;5.650;2023-02-22T07:00:03;46.8;;;21.9;;
70942;SDS011;59154;51.970;5.650;2023-02-22T07:05:02;31.1;;;18.4;;
70942;SDS011;59154;51.970;5.650;2023-02-22T07:10:03;43.1;;;18.6;;
70942;SDS011;59154;51.970;5.650;2023-02-22T07:15:02;37.4;;;17.8;;
70942;SDS011;59154;51.970;5.650;2023-02-22T07:20:03;46.3;;;17.9;;
70942;SDS011;59154;51.970;5.650;2023-02-22T07:25:02;30.1;;;18.5;;
70942;SDS011;59154;51.970;5.650;2023-02-22T07:30:03;37.4;;;17.8;;
70942;SDS011;59154;51.970;5.650;2023-02-22T07:35:02;32.1;;;17.3;;
70942;SDS011;59154;51.970;5.650;2023-02-22T07:40:03;24.4;;;14.7;;
70942;SDS011;59154;51.970;5.650;2023-02-22T07:45:02;26.7;;;16.1;;
70942;SDS011;59154;51.970;5.650;2023-02-22T07:50:02;23.6;;;13.1;;
70942;SDS011;59154;51.970;5.650;2023-02-22T07:55:02;21.6;;;13.9;;
70942;SDS011;59154;51.970;5.650;2023-02-22T08:00:03;23.6;;;14.2;;
70942;SDS011;59154;51.970;5.650;2023-02-22T08:05:04;21.8;;;13.9;;
70942;SDS011;59154;51.970;5.650;2023-02-22T08:10:02;22.1;;;13.4;;
70942;SDS011;59154;51.970;5.650;2023-02-22T08:15:03;23.1;;;13.8;;
70942;SDS011;59154;51.970;5.650;2023-02-22T08:20:03;22.0;;;13.3;;
70942;SDS011;59154;51.970;5.650;2023-02-22T08:25:03;22.6;;;15.0;;
70942;SDS011;59154;51.970;5.650;2023-02-22T08:30:03;23.6;;;14.1;;
70942;SDS011;59154;51.970;5.650;2023-02-22T08:35:02;26.1;;;16.1;;
70942;SDS011;59154;51.970;5.650;2023-02-22T08:40:03;25.4;;;16.0;;
70942;SDS011;59154;51.970;5.650;2023-02-22T08:45:02;21.7;;;14.1;;
70942;SDS011;59154;51.970;5.650;2023-02-22T08:50:03;25.7;;;15.6;;
70942;SDS011;59154;51.970;5.650;2023-02-22T08:55:02;25.8;;;14.3;;
70942;SDS011;59154;51.970;5.650;2023-02-22T09:00:04;21.3;;;14.2;;
70942;SDS011;59154;51.970;5.650;2023-02-22T09:05:02;22.6;;;14.2;;
70942;SDS011;59154;51.970;5.650;2023-02-22T09:10:02;20.2;;;13.1;;
70942;SDS011;59154;51.970;5.650;2023-02-22T09:15:02;23.2;;;13.6;;
70942;SDS011;59154;51.970;5.650;2023-02-22T09:20:03;24.0;;;13.8;;
70942;SDS011;59154;51.970;5.650;2023-02-22T09:25:02;20.1;;;12.5;;
70942;SDS011;59154;51.970;5.650;2023-02-22T09:30:03;22.4;;;14.0;;
70942;SDS011;59154;51.970;5.650;2023-02-22T09:35:02;24.6;;;15.1;;
70942;SDS011;59154;51.970;5.650;2023-02-22T09:40:03;25.9;;;15.5;;
70942;SDS011;59154;51.970;5.650;2023-02-22T09:45:03;27.2;;;16.1;;
70942;SDS011;59154;51.970;5.650;2023-02-22T09:50:03;26.3;;;14.4;;
70942;SDS011;59154;51.970;5.650;2023-02-22T09:55:06;22.8;;;14.7;;
70942;SDS011;59154;51.970;5.650;2023-02-22T10:00:05;25.8;;;16.5;;
70942;SDS011;59154;51.970;5.650;2023-02-22T10:05:03;24.0;;;15.2;;
70942;SDS011;59154;51.970;5.650;2023-02-22T10:10:03;23.2;;;14.0;;
70942;SDS011;59154;51.970;5.650;2023-02-22T10:15:07;24.0;;;14.5;;
70942;SDS011;59154;51.970;5.650;2023-02-22T10:20:09;24.1;;;14.5;;
70942;SDS011;59154;51.970;5.650;2023-02-22T10:25:03;26.4;;;15.8;;
70942;SDS011;59154;51.970;5.650;2023-02-22T10:30:05;25.1;;;15.4;;
70942;SDS011;59154;51.970;5.650;2023-02-22T10:35:02;24.6;;;15.9;;
70942;SDS011;59154;51.970;5.650;2023-02-22T10:40:11;23.2;;;14.6;;
70942;SDS011;59154;51.970;5.650;2023-02-22T10:45:02;25.7;;;15.2;;
70942;SDS011;59154;51.970;5.650;2023-02-22T10:50:03;24.9;;;16.3;;
70942;SDS011;59154;51.970;5.650;2023-02-22T10:55:02;24.8;;;15.7;;
70942;SDS011;59154;51.970;5.650;2023-02-22T11:00:12;26.1;;;15.2;;
70942;SDS011;59154;51.970;5.650;2023-02-22T11:05:03;21.0;;;15.3;;
70942;SDS011;59154;51.970;5.650;2023-02-22T11:10:04;24.9;;;14.4;;
70942;SDS011;59154;51.970;5.650;2023-02-22T11:15:24;20.9;;;14.2;;
70942;SDS011;59154;51.970;5.650;2023-02-22T11:20:03;22.7;;;14.7;;
70942;SDS011;59154;51.970;5.650;2023-02-22T11:25:02;21.9;;;13.8;;
70942;SDS011;59154;51.970;5.650;2023-02-22T11:30:09;20.8;;;13.0;;
70942;SDS011;59154;51.970;5.650;2023-02-22T11:35:15;20.0;;;12.6;;
70942;SDS011;59154;51.970;5.650;2023-02-22T11:40:05;21.7;;;13.4;;
70942;SDS011;59154;51.970;5.650;2023-02-22T11:45:11;17.1;;;11.7;;
70942;SDS011;59154;51.970;5.650;2023-02-22T11:50:03;16.0;;;11.8;;
70942;SDS011;59154;51.970;5.650;2023-02-22T11:55:06;19.1;;;13.7;;
70942;SDS011;59154;51.970;5.650;2023-02-22T12:00:09;19.0;;;12.1;;
70942;SDS011;59154;51.970;5.650;2023-02-22T12:05:09;18.6;;;13.0;;
70942;SDS011;59154;51.970;5.650;2023-02-22T12:10:05;19.1;;;12.9;;
70942;SDS011;59154;51.970;5.650;2023-02-22T12:15:05;17.7;;;12.4;;
70942;SDS011;59154;51.970;5.650;2023-02-22T12:20:04;20.3;;;14.9;;
70942;SDS011;59154;51.970;5.650;2023-02-22T12:25:03;17.6;;;12.4;;
70942;SDS011;59154;51.970;5.650;2023-02-22T12:30:04;17.2;;;11.4;;
70942;SDS011;59154;51.970;5.650;2023-02-22T12:35:03;20.4;;;14.4;;
70942;SDS011;59154;51.970;5.650;2023-02-22T12:40:04;18.3;;;12.2;;
70942;SDS011;59154;51.970;5.650;2023-02-22T12:45:03;21.9;;;13.6;;
70942;SDS011;59154;51.970;5.650;2023-02-22T12:50:04;19.7;;;13.4;;
70942;SDS011;59154;51.970;5.650;2023-02-22T12:55:03;18.1;;;13.2;;
70942;SDS011;59154;51.970;5.650;2023-02-22T13:00:04;18.3;;;12.7;;
70942;SDS011;59154;51.970;5.650;2023-02-22T13:05:02;22.0;;;13.9;;
70942;SDS011;59154;51.970;5.650;2023-02-22T13:10:06;18.9;;;12.9;;
70942;SDS011;59154;51.970;5.650;2023-02-22T13:15:04;21.4;;;14.0;;
70942;SDS011;59154;51.970;5.650;2023-02-22T13:20:05;20.8;;;12.8;;
70942;SDS011;59154;51.970;5.650;2023-02-22T13:25:03;17.1;;;11.2;;
70942;SDS011;59154;51.970;5.650;2023-02-22T13:30:03;14.9;;;10.7;;
70942;SDS011;59154;51.970;5.650;2023-02-22T13:35:09;16.5;;;11.0;;
70942;SDS011;59154;51.970;5.650;2023-02-22T13:40:09;16.7;;;10.4;;
70942;SDS011;59154;51.970;5.650;2023-02-22T13:45:30;14.7;;;10.4;;
70942;SDS011;59154;51.970;5.650;2023-02-22T13:50:14;14.0;;;10.1;;
70942;SDS011;59154;51.970;5.650;2023-02-22T13:55:03;17.8;;;11.3;;
70942;SDS011;59154;51.970;5.650;2023-02-22T14:00:21;13.5;;;10.9;;
70942;SDS011;59154;51.970;5.650;2023-02-22T14:05:32;15.3;;;11.4;;
70942;SDS011;59154;51.970;5.650;2023-02-22T14:10:02;17.1;;;10.2;;
70942;SDS011;59154;51.970;5.650;2023-02-22T14:15:07;17.6;;;11.7;;
70942;SDS011;59154;51.970;5.650;2023-02-22T14:20:14;14.9;;;11.3;;
70942;SDS011;59154;51.970;5.650;2023-02-22T14:25:02;14.5;;;10.9;;
70942;SDS011;59154;51.970;5.650;2023-02-22T14:30:03;15.3;;;11.0;;
70942;SDS011;59154;51.970;5.650;2023-02-22T14:35:04;18.3;;;12.0;;
70942;SDS011;59154;51.970;5.650;2023-02-22T14:40:04;14.8;;;11.3;;
70942;SDS011;59154;51.970;5.650;2023-02-22T14:45:04;16.9;;;12.1;;
70942;SDS011;59154;51.970;5.650;2023-02-22T14:50:03;18.1;;;12.0;;
70942;SDS011;59154;51.970;5.650;2023-02-22T14:55:05;18.1;;;12.1;;
70942;SDS011;59154;51.970;5.650;2023-02-22T15:00:04;16.0;;;12.0;;
70942;SDS011;59154;51.970;5.650;2023-02-22T15:05:02;15.3;;;11.3;;
70942;SDS011;59154;51.970;5.650;2023-02-22T15:10:13;17.5;;;11.6;;
70942;SDS011;59154;51.970;5.650;2023-02-22T15:15:11;15.2;;;10.6;;
70942;SDS011;59154;51.970;5.650;2023-02-22T15:20:04;14.5;;;10.4;;
70942;SDS011;59154;51.970;5.650;2023-02-22T15:25:04;14.6;;;10.1;;
70942;SDS011;59154;51.970;5.650;2023-02-22T15:30:04;14.3;;;10.5;;
70942;SDS011;59154;51.970;5.650;2023-02-22T15:35:19;13.4;;;10.5;;
70942;SDS011;59154;51.970;5.650;2023-02-22T15:40:04;14.2;;;10.2;;
70942;SDS011;59154;51.970;5.650;2023-02-22T15:45:02;16.2;;;10.8;;
70942;SDS011;59154;51.970;5.650;2023-02-22T15:50:20;20.2;;;11.0;;
70942;SDS011;59154;51.970;5.650;2023-02-22T15:55:03;13.0;;;10.3;;
70942;SDS011;59154;51.970;5.650;2023-02-22T16:00:03;15.8;;;12.2;;
70942;SDS011;59154;51.970;5.650;2023-02-22T16:05:04;14.5;;;11.7;;
70942;SDS011;59154;51.970;5.650;2023-02-22T16:10:02;16.3;;;12.0;;
70942;SDS011;59154;51.970;5.650;2023-02-22T16:15:03;16.0;;;12.3;;
70942;SDS011;59154;51.970;5.650;2023-02-22T16:20:28;16.9;;;11.9;;
70942;SDS011;59154;51.970;5.650;2023-02-22T16:25:34;14.4;;;12.1;;
70942;SDS011;59154;51.970;5.650;2023-02-22T16:30:04;15.0;;;12.1;;
70942;SDS011;59154;51.970;5.650;2023-02-22T16:35:03;17.4;;;12.2;;
70942;SDS011;59154;51.970;5.650;2023-02-22T16:40:02;17.4;;;13.0;;
70942;SDS011;59154;51.970;5.650;2023-02-22T16:45:02;21.4;;;13.9;;
70942;SDS011;59154;51.970;5.650;2023-02-22T16:50:03;17.6;;;12.5;;
70942;SDS011;59154;51.970;5.650;2023-02-22T16:55:02;16.2;;;12.9;;
70942;SDS011;59154;51.970;5.650;2023-02-22T17:00:04;14.8;;;13.0;;
70942;SDS011;59154;51.970;5.650;2023-02-22T17:05:03;15.4;;;13.0;;
70942;SDS011;59154;51.970;5.650;2023-02-22T17:10:03;14.4;;;12.2;;
70942;SDS011;59154;51.970;5.650;2023-02-22T17:15:02;16.6;;;12.4;;
70942;SDS011;59154;51.970;5.650;2023-02-22T17:20:03;18.8;;;13.1;;
70942;SDS011;59154;51.970;5.650;2023-02-22T17:25:07;16.0;;;14.0;;
70942;SDS011;59154;51.970;5.650;2023-02-22T17:30:03;16.4;;;13.2;;
70942;SDS011;59154;51.970;5.650;2023-02-22T17:35:02;19.6;;;14.1;;
70942;SDS011;59154;51.970;5.650;2023-02-22T17:40:03;18.5;;;14.3;;
70942;SDS011;59154;51.970;5.650;2023-02-22T17:45:02;18.3;;;14.1;;
70942;SDS011;59154;51.970;5.650;2023-02-22T17:50:02;18.6;;;14.3;;
70942;SDS011;59154;51.970;5.650;2023-02-22T17:55:03;21.0;;;15.9;;
70942;SDS011;59154;51.970;5.650;2023-02-22T18:00:03;21.1;;;17.4;;
70942;SDS011;59154;51.970;5.650;2023-02-22T18:05:02;27.8;;;21.3;;
70942;SDS011;59154;51.970;5.650;2023-02-22T18:10:02;32.9;;;22.3;;
70942;SDS011;59154;51.970;5.650;2023-02-22T18:15:03;32.0;;;23.7;;
70942;SDS011;59154;51.970;5.650;2023-02-22T18:20:04;30.8;;;23.7;;
70942;SDS011;59154;51.970;5.650;2023-02-22T18:25:03;35.0;;;25.4;;
70942;SDS011;59154;51.970;5.650;2023-02-22T18:30:02;27.6;;;23.8;;
70942;SDS011;59154;51.970;5.650;2023-02-22T18:35:02;30.4;;;23.1;;
70942;SDS011;59154;51.970;5.650;2023-02-22T18:40:03;32.7;;;24.5;;
70942;SDS011;59154;51.970;5.650;2023-02-22T18:45:02;31.9;;;26.2;;
70942;SDS011;59154;51.970;5.650;2023-02-22T18:50:02;30.8;;;25.2;;
70942;SDS011;59154;51.970;5.650;2023-02-22T18:55:02;32.1;;;24.5;;
70942;SDS011;59154;51.970;5.650;2023-02-22T19:00:03;35.3;;;26.4;;
70942;SDS011;59154;51.970;5.650;2023-02-22T19:05:02;31.3;;;25.4;;
70942;SDS011;59154;51.970;5.650;2023-02-22T19:10:02;34.0;;;26.8;;
70942;SDS011;59154;51.970;5.650;2023-02-22T19:15:02;31.1;;;26.1;;
70942;SDS011;59154;51.970;5.650;2023-02-22T19:20:03;36.4;;;28.5;;
70942;SDS011;59154;51.970;5.650;2023-02-22T19:25:02;35.5;;;26.1;;
70942;SDS011;59154;51.970;5.650;2023-02-22T19:30:03;38.1;;;27.9;;
70942;SDS011;59154;51.970;5.650;2023-02-22T19:35:03;37.5;;;28.9;;
70942;SDS011;59154;51.970;5.650;2023-02-22T19:40:04;36.9;;;28.2;;
70942;SDS011;59154;51.970;5.650;2023-02-22T19:45:03;37.7;;;29.1;;
70942;SDS011;59154;51.970;5.650;2023-02-22T19:50:02;39.5;;;30.5;;
70942;SDS011;59154;51.970;5.650;2023-02-22T19:55:02;40.1;;;30.3;;
70942;SDS011;59154;51.970;5.650;2023-02-22T20:00:03;43.1;;;30.9;;
70942;SDS011;59154;51.970;5.650;2023-02-22T20:05:02;42.2;;;31.8;;
70942;SDS011;59154;51.970;5.650;2023-02-22T20:10:02;45.1;;;31.8;;
70942;SDS011;59154;51.970;5.650;2023-02-22T20:15:02;48.7;;;32.6;;
70942;SDS011;59154;51.970;5.650;2023-02-22T20:20:03;46.3;;;33.7;;
70942;SDS011;59154;51.970;5.650;2023-02-22T20:25:02;42.5;;;31.5;;
70942;SDS011;59154;51.970;5.650;2023-02-22T20:30:03;47.3;;;31.8;;
70942;SDS011;59154;51.970;5.650;2023-02-22T20:35:02;46.0;;;32.6;;
70942;SDS011;59154;51.970;5.650;2023-02-22T20:40:03;49.3;;;32.6;;
70942;SDS011;59154;51.970;5.650;2023-02-22T20:45:02;46.0;;;32.3;;
70942;SDS011;59154;51.970;5.650;2023-02-22T20:50:02;55.6;;;34.8;;
70942;SDS011;59154;51.970;5.650;2023-02-22T20:55:03;46.6;;;33.9;;
70942;SDS011;59154;51.970;5.650;2023-02-22T21:00:04;49.6;;;32.7;;
70942;SDS011;59154;51.970;5.650;2023-02-22T21:05:02;50.9;;;31.4;;
70942;SDS011;59154;51.970;5.650;2023-02-22T21:10:03;47.9;;;32.3;;
70942;SDS011;59154;51.970;5.650;2023-02-22T21:15:02;49.0;;;31.9;;
70942;SDS011;59154;51.970;5.650;2023-02-22T21:20:03;51.4;;;31.3;;
70942;SDS011;59154;51.970;5.650;2023-02-22T21:25:02;51.1;;;31.9;;
70942;SDS011;59154;51.970;5.650;2023-02-22T21:30:03;45.9;;;30.2;;
70942;SDS011;59154;51.970;5.650;2023-02-22T21:35:03;53.9;;;31.5;;
70942;SDS011;59154;51.970;5.650;2023-02-22T21:40:03;46.9;;;30.0;;
70942;SDS011;59154;51.970;5.650;2023-02-22T21:45:02;44.8;;;30.1;;
70942;SDS011;59154;51.970;5.650;2023-02-22T21:50:03;50.5;;;30.9;;
70942;SDS011;59154;51.970;5.650;2023-02-22T21:55:02;50.2;;;31.2;;
70942;SDS011;59154;51.970;5.650;2023-02-22T22:00:04;47.2;;;30.8;;
70942;SDS011;59154;51.970;5.650;2023-02-22T22:05:03;49.3;;;32.5;;
70942;SDS011;59154;51.970;5.650;2023-02-22T22:10:03;49.3;;;30.2;;
70942;SDS011;59154;51.970;5.650;2023-02-22T22:15:02;46.8;;;31.2;;
70942;SDS011;59154;51.970;5.650;2023-02-22T22:20:03;47.5;;;29.4;;
70942;SDS011;59154;51.970;5.650;2023-02-22T22:25:02;46.6;;;30.5;;
70942;SDS011;59154;51.970;5.650;2023-02-22T22:30:03;43.6;;;30.2;;
70942;SDS011;59154;51.970;5.650;2023-02-22T22:35:02;51.8;;;30.2;;
70942;SDS011;59154;51.970;5.650;2023-02-22T22:40:03;43.7;;;30.2;;
70942;SDS011;59154;51.970;5.650;2023-02-22T22:45:02;46.3;;;29.7;;
70942;SDS011;59154;51.970;5.650;2023-02-22T22:50:03;38.7;;;28.4;;
70942;SDS011;59154;51.970;5.650;2023-02-22T22:55:02;45.9;;;29.2;;
70942;SDS011;59154;51.970;5.650;2023-02-22T23:00:04;46.7;;;29.8;;
70942;SDS011;59154;51.970;5.650;2023-02-22T23:05:02;39.5;;;29.5;;
70942;SDS011;59154;51.970;5.650;2023-02-22T23:10:03;39.7;;;27.8;;
70942;SDS011;59154;51.970;5.650;2023-02-22T23:15:03;41.7;;;28.8;;
70942;SDS011;59154;51.970;5.650;2023-02-22T23:20:03;44.4;;;29.4;;
70942;SDS011;59154;51.970;5.650;2023-02-22T23:25:02;43.1;;;28.3;;
70942;SDS011;59154;51.970;5.650;2023-02-22T23:30:03;43.7;;;29.5;;
70942;SDS011;59154;51.970;5.650;2023-02-22T23:35:02;42.0;;;27.4;;
70942;SDS011;59154;51.970;5.650;2023-02-22T23:40:03;39.8;;;29.0;;
70942;SDS011;59154;51.970;5.650;2023-02-22T23:45:02;44.6;;;28.9;;
70942;SDS011;59154;51.970;5.650;2023-02-22T23:50:02;44.0;;;29.7;;
70942;SDS011;59154;51.970;5.650;2023-02-22T23:55:03;42.5;;;28.0;;
